This is the latest recevied weather packets stored in our database for station/object W8BS. If no packets are shown the sender has not sent any weather packets the latest 1 day(s).
| Time | Temp. | Humidity | Pressure | Rain* | Wind** | Luminosity | Snow |
|---|---|---|---|---|---|---|---|
| 1777987684 | 20° C | 53% | 1012.6 hPa | 0 mm | 2.68 m/s, 255° | 472 W/m² | - |
| 1777987381 | 20° C | 54% | 1012.7 hPa | 0 mm | 1.34 m/s, 213° | 431 W/m² | - |
| 1777987079 | 19.44° C | 54% | 1012.6 hPa | 0 mm | 1.34 m/s, 252° | 408 W/m² | - |
| 1777986776 | 19.44° C | 54% | 1012.7 hPa | 0 mm | 3.13 m/s, 233° | 347 W/m² | - |
| 1777986474 | 19.44° C | 55% | 1012.5 hPa | 0 mm | 1.79 m/s, 178° | 370 W/m² | - |
| 1777986172 | 19.44° C | 55% | 1012.4 hPa | 0 mm | 1.79 m/s, 178° | 335 W/m² | - |
| 1777985869 | 18.89° C | 56% | 1012.4 hPa | 0 mm | 1.79 m/s, 198° | 331 W/m² | - |
| 1777985566 | 18.89° C | 56% | 1012.5 hPa | 0 mm | 0.89 m/s, 230° | 290 W/m² | - |
| 1777985262 | 18.89° C | 56% | 1012.3 hPa | 0 mm | 0.89 m/s, 179° | 267 W/m² | - |
| 1777984959 | 18.89° C | 57% | 1012.4 hPa | 0 mm | 1.34 m/s, 193° | 283 W/m² | - |
| 1777984654 | 18.33° C | 58% | 1012.8 hPa | 0 mm | 1.79 m/s, 225° | 264 W/m² | - |
| 1777984352 | 18.33° C | 58% | 1012.7 hPa | 0 mm | 1.79 m/s, 164° | 64 W/m² | - |
| 1777984048 | 18.33° C | 58% | 1012.6 hPa | 0 mm | 2.24 m/s, 181° | 75 W/m² | - |
| 1777983746 | 18.33° C | 58% | 1012.6 hPa | 0 mm | 2.68 m/s, 228° | 217 W/m² | - |
| 1777983442 | 17.78° C | 59% | 1012.8 hPa | 0 mm | 0.89 m/s, 175° | 110 W/m² | - |
| 1777983139 | 17.78° C | 59% | 1012.7 hPa | 0 mm | 1.79 m/s, 217° | 160 W/m² | - |
| 1777982835 | 17.78° C | 60% | 1012.6 hPa | 0 mm | 1.34 m/s, 158° | 175 W/m² | - |
| 1777982531 | 17.22° C | 61% | 1012.9 hPa | 0 mm | 1.79 m/s, 183° | 62 W/m² | - |
| 1777982224 | 17.22° C | 60% | 1012.7 hPa | 0 mm | 1.34 m/s, 183° | 67 W/m² | - |
| 1777981923 | 17.22° C | 61% | 1012.7 hPa | 0 mm | 1.79 m/s, 210° | 91 W/m² | - |
| 1777981620 | 17.22° C | 61% | 1012.6 hPa | 0 mm | 2.24 m/s, 263° | 104 W/m² | - |
| 1777981316 | 16.67° C | 61% | 1012.6 hPa | 0 mm | 0.89 m/s, 167° | 66 W/m² | - |
| 1777981013 | 16.67° C | 61% | 1012.6 hPa | 0 mm | 0.45 m/s, 187° | 62 W/m² | - |
| 1777980709 | 16.67° C | 62% | 1012.6 hPa | 0 mm | 1.34 m/s, 307° | 58 W/m² | - |
| 1777980405 | 16.11° C | 62% | 1012.6 hPa | 0 mm | 0.45 m/s, 192° | 51 W/m² | - |
* Rain latest hour (hover to see other rain measurements)
** Current wind speed in m/s (hover to see current wind gust speed)